Barkley Regional Airport
KPAH : now visible

Airfield :











YOU CAN JOIN US ON...

 
LOGIN :

Register | Disclaimer

   EN    FR    IT 

 









Legend :    VFR   Marginal VFR   IFR   Intensive IFR   Very Intensive IFR
Visi :
Ceiling :
>= 8 km
>= 3000ft
5 to 8 km
1000 to 3000 ft
1500m to 5 km
500 to 1000 ft
800 to 1500m
200 to 500 ft
< 800m
< 200 ft
Symbols :   Thunderstorms  Fog  Heavy snow  Heavy precipitations  Wind > 20 kt







- Airport Elevation : 410 ft
- IATA code : PAH


KPAH - Barkley Regional

CURRENT METAR :
  • 211053Z 22003KT 7SM CLR 25/23 A2996 RMK AO2 SLP138 T02500233

EXPIRED METARs :
  • 210953Z AUTO VRB05KT 8SM CLR 26/24 A2993 RMK AO2 SLP130 T02560239
  • 210853Z AUTO 22004KT 9SM FEW050 26/23 A2993 RMK AO2 SLP129 T02610233 55010

TAF KPAH
Valid from the 21 at 06:00 until the 22 at 06:00 UTC


210603Z 2106/2206 VRB03KT P6SM FEW250
FM211500 23006KT P6SM SCT040
FM220000 VRB04KT P6SM VCTS SCT050CB
KZME FIR / North America



MET'MAP, your aeronautical weather chart ! - Copyright ORBIFLY December 2007 - Disclaimer

ORBIFLY MET'MAP TEAM :

Programming & Development : Alexandra Zaïnal
Concept & Development : Baudouin d'Aumeries
Co-Development & Prog : Marc-Olivier Méhu
Technical & hardware support : Manuel Goepfert

Contact : metmap@orbifly.com




SOURCES & CREDITS :

   NOAA       Earth
Advisory